»·PEaware :: SWA153 KPHX-KLAS

SWA153 :: KPHX-KLAS

FLIGHT INFORMATION

Flight Status: Arrived
Operator:
Southwest Airlines
More flights by this operator :: More flights under this callsign
Pilot: Kevin M. (7)
Aircraft: BOEING 737-700
(B737)
More flights by this aircraft type
Origin: KPHX Phoenix Sky Harbor Intl
United States
Destination: KLAS McCarran Intl
United States
More flights between these airports :: More routes between these airports
Route: +MAYSA5 SISIE IGM TYSSN5
File this flight plan on PilotEdge
Remarks:
Altitude:
(Current/Filed)
30,000ft
Speed:
(Current/Filed)
480kts
Departed: 09-Oct-17 06:57 PM
Arrived: 09-Oct-17 07:40 PM
Distance/Time
Traveled:
222nm/0:43
Distance/Time
To Go:
Arrived

Flight Plot

Page will automatically refresh every two minutes.

Flight plan parsing failed; only flown route is shown


Map Options




Map Legend


Flown Route
Filed Route
Departure Airport
Arrival Airport
Navaid (VOR, NDB)
Fix

Horizontal Profiles

Position Reports

Time Latitude Longitude Heading Altitude Ground
Speed
09-Oct-17 18:33 33.433724 -111.998750 322 1143ft 0kts
09-Oct-17 18:34 33.433724 -111.998750 322 1143ft 0kts
09-Oct-17 18:35 33.433724 -111.998750 322 1143ft 0kts
09-Oct-17 18:36 33.433724 -111.998750 322 1143ft 0kts
09-Oct-17 18:37 33.433724 -111.998750 322 1143ft 0kts
09-Oct-17 18:38 33.433724 -111.998750 322 1143ft 0kts
09-Oct-17 18:39 33.433724 -111.998750 322 1143ft 0kts
09-Oct-17 18:40 33.433724 -111.998750 322 1143ft 0kts
09-Oct-17 18:41 33.433724 -111.998750 322 1143ft 0kts
09-Oct-17 18:42 33.433724 -111.998750 322 1143ft 0kts
09-Oct-17 18:43 33.433724 -111.998750 322 1143ft 0kts
09-Oct-17 18:43 33.433724 -111.998750 322 1143ft 0kts
09-Oct-17 18:45 33.433724 -111.998750 322 1143ft 0kts
09-Oct-17 18:45 33.433724 -111.998750 322 1143ft 0kts
09-Oct-17 18:47 33.433724 -111.998750 322 1143ft 0kts
09-Oct-17 18:48 33.433724 -111.998750 322 1143ft 0kts
09-Oct-17 18:48 33.433724 -111.998750 322 1143ft 0kts
09-Oct-17 18:49 33.433724 -111.998750 322 1143ft 0kts
09-Oct-17 18:51 33.433527 -111.998568 321 1143ft 3kts
09-Oct-17 18:51 33.433386 -111.997887 232 1143ft 0kts
09-Oct-17 18:52 33.433386 -111.997887 232 1143ft 0kts
09-Oct-17 18:53 33.433868 -111.997998 112 1143ft 11kts
09-Oct-17 18:55 33.433477 -111.998273 171 1143ft 0kts
09-Oct-17 18:55 33.433378 -111.998258 173 1143ft 5kts
09-Oct-17 18:56 33.432146 -111.999471 269 1143ft 18kts
09-Oct-17 18:57 33.432154 -112.007770 269 1143ft 26kts
09-Oct-17 18:58 33.432165 -112.016876 270 1143ft 26kts
09-Oct-17 18:59 33.432169 -112.024082 269 1143ft 17kts
09-Oct-17 19:00 33.431302 -112.026959 169 1143ft 9kts
09-Oct-17 19:01 33.431061 -112.007039 88 1145ft 153kts
09-Oct-17 19:02 33.432866 -111.946270 85 3788ft 203kts
09-Oct-17 19:03 33.442050 -111.869173 48 5226ft 283kts
09-Oct-17 19:04 33.516488 -111.859154 359 8867ft 289kts
09-Oct-17 19:05 33.603344 -111.853581 351 10654ft 369kts
09-Oct-17 19:06 33.707673 -111.848435 355 14205ft 389kts
09-Oct-17 19:07 33.784748 -111.934979 305 17837ft 407kts
09-Oct-17 19:08 33.849948 -112.048074 307 21244ft 420kts
09-Oct-17 19:09 33.919553 -112.162598 308 24392ft 432kts
09-Oct-17 19:10 33.992484 -112.279647 308 27492ft 435kts
09-Oct-17 19:11 34.073634 -112.382598 319 29783ft 423kts
09-Oct-17 19:12 34.165654 -112.473042 321 30036ft 443kts
09-Oct-17 19:13 34.263156 -112.568711 320 30144ft 456kts
09-Oct-17 19:14 34.359824 -112.666534 319 30155ft 456kts
09-Oct-17 19:15 34.455739 -112.766148 319 30154ft 456kts
09-Oct-17 19:16 34.552581 -112.865272 319 30156ft 456kts
09-Oct-17 19:17 34.648150 -112.965723 317 30156ft 456kts
09-Oct-17 19:18 34.742327 -113.068784 316 30156ft 457kts
09-Oct-17 19:19 34.836245 -113.172150 316 30155ft 457kts
09-Oct-17 19:20 34.926281 -113.271594 316 29604ft 411kts
09-Oct-17 19:21 35.000353 -113.371043 301 28219ft 413kts
09-Oct-17 19:22 35.060003 -113.500185 299 26823ft 439kts
09-Oct-17 19:23 35.117852 -113.628715 300 25304ft 432kts
09-Oct-17 19:24 35.172056 -113.745016 300 23943ft 427kts
09-Oct-17 19:25 35.229196 -113.867819 301 22522ft 420kts
09-Oct-17 19:26 35.302321 -113.974500 321 21152ft 410kts
09-Oct-17 19:27 35.392016 -114.058992 324 19873ft 406kts
09-Oct-17 19:28 35.481469 -114.140113 323 18079ft 401kts
09-Oct-17 19:29 35.567281 -114.221165 323 15833ft 390kts
09-Oct-17 19:30 35.651913 -114.300521 324 13715ft 378kts
09-Oct-17 19:31 35.734900 -114.376638 329 12064ft 368kts
09-Oct-17 19:32 35.828395 -114.425543 340 11193ft 363kts
09-Oct-17 19:33 35.917685 -114.466247 340 10394ft 316kts
09-Oct-17 19:34 35.983305 -114.518991 282 9303ft 289kts
09-Oct-17 19:35 35.997093 -114.616843 281 7916ft 288kts
09-Oct-17 19:36 36.009564 -114.712672 281 6661ft 284kts
09-Oct-17 19:37 36.021530 -114.808129 280 6051ft 282kts
09-Oct-17 19:38 36.033393 -114.903209 281 5994ft 280kts
09-Oct-17 19:39 36.028676 -114.999301 261 6004ft 284kts
09-Oct-17 19:40 36.014162 -115.094022 260 5465ft 266kts
09-Oct-17 19:41 36.004607 -115.169263 277 4730ft 192kts
09-Oct-17 19:42 36.034213 -115.193359 38 3497ft 161kts
09-Oct-17 19:43 36.071887 -115.168893 27 2312ft 158kts
09-Oct-17 19:44 36.094968 -115.154949 104 2150ft 17kts
09-Oct-17 19:45 36.091417 -115.155159 176 2150ft 24kts
09-Oct-17 19:46 36.089702 -115.156304 206 2150ft 23kts
09-Oct-17 19:47 36.083023 -115.155752 154 2150ft 23kts
09-Oct-17 19:48 36.081036 -115.150282 87 2150ft 24kts
09-Oct-17 19:49 36.079950 -115.147083 59 2150ft 0kts

Navigation Log

Ident Type
Flight plan parsing failed, navigation log unavailable